createdAt,value
2022-09-03T00:00:00.158Z,17.0
2022-09-03T00:05:00.184Z,17.0
2022-09-03T00:10:00.229Z,17.0
2022-09-03T00:15:00.200Z,16.9
2022-09-03T00:20:00.225Z,16.8
2022-09-03T00:25:00.202Z,16.8
2022-09-03T00:30:00.171Z,16.8
2022-09-03T00:35:00.363Z,16.7
2022-09-03T00:40:00.336Z,16.7
2022-09-03T00:45:00.182Z,16.7
2022-09-03T00:50:00.374Z,16.6
2022-09-03T00:55:00.206Z,16.6
2022-09-03T01:00:00.170Z,16.6
2022-09-03T01:05:00.204Z,16.6
2022-09-03T01:10:00.178Z,16.6
2022-09-03T01:15:00.205Z,16.5
2022-09-03T01:20:00.188Z,16.5
2022-09-03T01:25:00.512Z,16.5
2022-09-03T01:30:00.403Z,16.4
2022-09-03T01:35:00.207Z,16.4
2022-09-03T01:40:00.380Z,16.4
2022-09-03T01:45:00.204Z,16.4
2022-09-03T01:50:00.515Z,16.3
2022-09-03T01:55:00.162Z,16.3
2022-09-03T02:00:00.206Z,16.2
2022-09-03T02:05:00.182Z,16.2
2022-09-03T02:10:00.181Z,16.2
2022-09-03T02:15:00.169Z,16.1
2022-09-03T02:20:00.199Z,16.3
2022-09-03T02:25:00.168Z,16.2
2022-09-03T02:30:00.202Z,16.2
2022-09-03T02:35:00.222Z,16.1
2022-09-03T02:40:00.360Z,16.1
2022-09-03T02:45:00.188Z,16.1
2022-09-03T02:50:00.209Z,16.0
2022-09-03T02:55:00.281Z,15.9
2022-09-03T03:00:00.175Z,15.9
2022-09-03T03:05:00.244Z,15.9
2022-09-03T03:10:00.187Z,15.9
2022-09-03T03:15:00.182Z,15.8
2022-09-03T03:20:00.196Z,15.8
2022-09-03T03:25:00.220Z,15.8
2022-09-03T03:30:00.168Z,15.8
2022-09-03T03:35:00.233Z,15.9
2022-09-03T03:40:00.349Z,15.9
2022-09-03T03:45:00.189Z,15.9
2022-09-03T03:50:00.195Z,15.9
2022-09-03T03:55:00.202Z,15.9
2022-09-03T04:00:00.160Z,15.9
2022-09-03T04:05:00.357Z,15.9
2022-09-03T04:10:00.215Z,15.8
2022-09-03T04:15:00.201Z,15.7
2022-09-03T04:20:00.214Z,15.6
2022-09-03T04:25:00.194Z,15.5
2022-09-03T04:30:00.178Z,15.5
2022-09-03T04:35:00.206Z,15.5
2022-09-03T04:40:00.338Z,15.4
2022-09-03T04:45:00.198Z,15.5
2022-09-03T04:50:00.377Z,15.4
2022-09-03T04:55:00.206Z,15.3
2022-09-03T05:00:00.173Z,15.4
2022-09-03T05:05:00.208Z,15.4
2022-09-03T05:10:00.196Z,15.4
2022-09-03T05:15:00.184Z,15.2
2022-09-03T05:20:00.242Z,15.4
2022-09-03T05:25:00.217Z,15.4
2022-09-03T05:30:00.183Z,15.4
2022-09-03T05:35:00.217Z,15.2
2022-09-03T05:40:00.307Z,15.3
2022-09-03T05:45:00.190Z,15.3
2022-09-03T05:50:00.177Z,15.3
2022-09-03T05:55:00.185Z,15.4
2022-09-03T06:00:00.190Z,15.4
2022-09-03T06:05:00.209Z,15.5
2022-09-03T06:10:00.173Z,15.5
2022-09-03T06:15:00.180Z,15.6
2022-09-03T06:20:00.208Z,15.6
2022-09-03T06:25:00.188Z,15.7
2022-09-03T06:30:00.209Z,15.8
2022-09-03T06:35:00.198Z,15.9
2022-09-03T06:40:00.305Z,15.9
2022-09-03T06:45:00.197Z,15.9
2022-09-03T06:50:00.209Z,16.0
2022-09-03T06:55:00.223Z,16.1
2022-09-03T07:00:00.187Z,16.2
2022-09-03T07:05:00.202Z,16.3
2022-09-03T07:10:00.209Z,16.4
2022-09-03T07:15:00.170Z,16.5
2022-09-03T07:20:00.226Z,16.6
2022-09-03T07:25:00.196Z,16.8
2022-09-03T07:30:00.182Z,17.0
2022-09-03T07:35:00.209Z,17.2
2022-09-03T07:40:00.320Z,17.6
2022-09-03T07:45:00.203Z,18.2
2022-09-03T07:50:00.206Z,18.9
2022-09-03T07:55:00.186Z,19.5
2022-09-03T08:00:00.205Z,20.1
2022-09-03T08:05:00.196Z,20.6
2022-09-03T08:10:00.196Z,21.2
2022-09-03T08:15:00.216Z,21.6
2022-09-03T08:20:00.206Z,21.9
2022-09-03T08:25:00.217Z,22.3
2022-09-03T08:30:00.206Z,22.6
2022-09-03T08:35:00.182Z,22.8
2022-09-03T08:40:00.395Z,22.6
2022-09-03T08:45:00.159Z,22.1
2022-09-03T08:50:00.192Z,22.1
2022-09-03T08:55:00.216Z,22.7
2022-09-03T09:00:00.216Z,23.1
2022-09-03T09:05:00.199Z,23.5
2022-09-03T09:10:00.219Z,23.8
2022-09-03T09:15:00.181Z,24.4
2022-09-03T09:20:00.180Z,24.4
2022-09-03T09:25:00.214Z,24.2
2022-09-03T09:30:00.198Z,24.3
2022-09-03T09:35:00.206Z,24.9
2022-09-03T09:40:00.350Z,24.5
2022-09-03T09:45:00.194Z,24.6
2022-09-03T09:50:00.210Z,24.8
2022-09-03T09:55:00.188Z,24.8
2022-09-03T10:00:00.226Z,24.6
2022-09-03T10:05:00.182Z,24.4
2022-09-03T10:10:00.204Z,24.5
2022-09-03T10:15:00.214Z,24.5
2022-09-03T10:20:00.184Z,24.8
2022-09-03T10:25:00.260Z,25.0
2022-09-03T10:30:00.229Z,25.0
2022-09-03T10:35:00.212Z,24.9
2022-09-03T10:40:00.310Z,25.1
2022-09-03T10:45:00.223Z,25.3
2022-09-03T10:50:00.212Z,25.3
2022-09-03T10:55:00.195Z,25.3
2022-09-03T11:00:00.313Z,25.1
2022-09-03T11:05:00.397Z,24.9
2022-09-03T11:10:00.184Z,25.0
2022-09-03T11:15:00.211Z,24.8
2022-09-03T11:20:00.172Z,24.3
2022-09-03T11:25:00.203Z,23.8
2022-09-03T11:30:00.186Z,23.3
2022-09-03T11:35:00.186Z,22.9
2022-09-03T11:40:00.357Z,22.6
2022-09-03T11:45:00.184Z,22.3
2022-09-03T11:50:00.200Z,22.3
2022-09-03T11:55:00.188Z,22.4
2022-09-03T12:00:00.203Z,22.3
2022-09-03T12:05:00.321Z,22.1
2022-09-03T12:10:00.174Z,22.5
2022-09-03T12:15:00.377Z,22.7
2022-09-03T12:20:00.185Z,22.8
2022-09-03T12:25:00.201Z,23.1
2022-09-03T12:30:00.457Z,23.0
2022-09-03T12:35:00.164Z,22.7
2022-09-03T12:40:08.734Z,22.7
2022-09-03T12:45:00.196Z,22.8
2022-09-03T12:50:00.194Z,22.9
2022-09-03T12:55:00.158Z,23.1
2022-09-03T13:00:00.219Z,23.2
2022-09-03T13:05:00.180Z,23.0
2022-09-03T13:10:00.215Z,23.1
2022-09-03T13:15:00.180Z,23.4
2022-09-03T13:20:00.206Z,23.4
2022-09-03T13:25:00.344Z,23.3
2022-09-03T13:30:00.196Z,23.3
2022-09-03T13:35:00.189Z,23.3
2022-09-03T13:40:00.278Z,23.3
2022-09-03T13:45:00.190Z,23.4
2022-09-03T13:50:00.188Z,23.2
2022-09-03T13:55:00.212Z,23.2
2022-09-03T14:00:00.206Z,23.2
2022-09-03T14:05:00.180Z,23.3
2022-09-03T14:10:00.177Z,23.4
2022-09-03T14:15:00.246Z,23.2
2022-09-03T14:20:00.190Z,23.3
2022-09-03T14:25:00.193Z,23.4
2022-09-03T14:30:00.177Z,23.6
2022-09-03T14:35:00.215Z,23.7
2022-09-03T14:40:00.296Z,23.7
2022-09-03T14:45:00.214Z,23.8
2022-09-03T14:50:00.193Z,23.7
2022-09-03T14:55:00.225Z,23.6
2022-09-03T15:00:00.188Z,23.4
2022-09-03T15:05:00.272Z,23.2
2022-09-03T15:10:00.203Z,23.2
2022-09-03T15:15:00.218Z,23.1
2022-09-03T15:20:00.225Z,23.0
2022-09-03T15:25:00.218Z,23.0
2022-09-03T15:30:00.242Z,23.0
2022-09-03T15:35:00.215Z,22.9
2022-09-03T15:40:00.558Z,22.8
2022-09-03T15:45:00.211Z,22.8
2022-09-03T15:50:00.182Z,22.7
2022-09-03T15:55:00.347Z,22.7
2022-09-03T16:00:00.201Z,22.6
2022-09-03T16:05:00.213Z,22.5
2022-09-03T16:10:23.351Z,22.4
2022-09-03T16:15:00.335Z,22.4
2022-09-03T16:20:00.206Z,22.4
2022-09-03T16:25:00.219Z,22.4
2022-09-03T16:30:00.212Z,22.3
2022-09-03T16:35:00.195Z,22.2
2022-09-03T16:40:00.398Z,22.2
2022-09-03T16:45:00.170Z,22.1
2022-09-03T16:50:00.234Z,22.0
2022-09-03T16:55:00.346Z,21.9
2022-09-03T17:00:00.252Z,22.0
2022-09-03T17:05:00.183Z,21.9
2022-09-03T17:10:00.222Z,21.8
2022-09-03T17:15:00.162Z,21.8
2022-09-03T17:20:00.200Z,21.7
2022-09-03T17:25:00.260Z,21.7
2022-09-03T17:30:00.186Z,21.6
2022-09-03T17:35:00.178Z,21.6
2022-09-03T17:40:00.351Z,21.5
2022-09-03T17:45:00.193Z,21.3
2022-09-03T17:50:00.233Z,21.2
2022-09-03T17:55:00.210Z,21.1
2022-09-03T18:00:00.232Z,21.0
2022-09-03T18:05:00.155Z,21.0
2022-09-03T18:10:00.217Z,20.9
2022-09-03T18:15:00.178Z,20.8
2022-09-03T18:20:00.200Z,20.6
2022-09-03T18:25:00.158Z,20.6
2022-09-03T18:30:00.361Z,20.5
2022-09-03T18:35:00.177Z,20.5
2022-09-03T18:40:00.302Z,20.4
2022-09-03T18:45:19.854Z,20.3
2022-09-03T18:50:00.206Z,20.3
2022-09-03T18:55:08.749Z,20.3
2022-09-03T19:00:00.364Z,20.2
2022-09-03T19:05:00.198Z,20.1
2022-09-03T19:10:00.177Z,20.0
2022-09-03T19:15:00.242Z,19.8
2022-09-03T19:20:00.252Z,19.8
2022-09-03T19:25:00.172Z,19.8
2022-09-03T19:30:00.213Z,19.9
2022-09-03T19:35:00.211Z,20.2
2022-09-03T19:40:00.332Z,20.2
2022-09-03T19:45:00.198Z,20.2
2022-09-03T19:50:00.191Z,20.2
2022-09-03T19:55:00.328Z,20.2
2022-09-03T20:00:00.161Z,20.1
2022-09-03T20:05:00.245Z,20.0
2022-09-03T20:10:00.158Z,20.0
2022-09-03T20:15:00.215Z,20.0
2022-09-03T20:20:00.200Z,19.9
2022-09-03T20:25:00.183Z,19.7
2022-09-03T20:30:00.179Z,19.4
2022-09-03T20:35:00.343Z,19.3
2022-09-03T20:40:00.354Z,19.2
2022-09-03T20:45:00.199Z,18.9
2022-09-03T20:50:00.219Z,18.8
2022-09-03T20:55:00.208Z,18.8
2022-09-03T21:00:00.185Z,18.8
2022-09-03T21:05:00.219Z,18.7
2022-09-03T21:10:00.159Z,18.6
2022-09-03T21:15:00.209Z,18.5
2022-09-03T21:20:00.191Z,18.4
2022-09-03T21:25:00.163Z,18.4
2022-09-03T21:30:00.204Z,18.2
2022-09-03T21:35:00.200Z,18.1
2022-09-03T21:40:00.325Z,18.0
2022-09-03T21:45:00.166Z,18.0
2022-09-03T21:50:00.187Z,18.0
2022-09-03T21:55:00.196Z,17.9
2022-09-03T22:00:00.304Z,17.9
2022-09-03T22:05:00.205Z,17.8
2022-09-03T22:10:00.229Z,17.7
2022-09-03T22:15:00.163Z,17.6
2022-09-03T22:20:00.219Z,17.7
2022-09-03T22:25:00.167Z,17.6
2022-09-03T22:30:00.363Z,17.5
2022-09-03T22:35:00.215Z,17.4
2022-09-03T22:40:00.337Z,17.4
2022-09-03T22:45:00.191Z,17.4
2022-09-03T22:50:00.335Z,17.4
2022-09-03T22:55:00.160Z,17.3
2022-09-03T23:00:00.216Z,17.3
2022-09-03T23:05:00.210Z,17.2
2022-09-03T23:10:00.192Z,17.3
2022-09-03T23:15:00.166Z,17.2
2022-09-03T23:20:00.209Z,17.2
2022-09-03T23:25:00.207Z,17.1
2022-09-03T23:30:00.200Z,17.1
2022-09-03T23:35:00.362Z,17.0
2022-09-03T23:40:00.388Z,17.0
2022-09-03T23:45:00.266Z,17.1
2022-09-03T23:50:00.201Z,17.0
2022-09-03T23:55:00.194Z,17.0
